Urb Prado Hermoso, Puerto Rico
Current Conditions -  °F | °C
As of 10:53 PM on Thursday 18 Dec 2014 (Local Time) from TJNR Reporting Station
Broken Clouds Broken Clouds  
Wind Chill: 78°   Ceiling: 8500
Heat Index: 80°   Visibility: 10mi
Dew Point: 70°   Wind: 9mph
Humidity: 76%   Direction: 50°NE
Pressure: 30.03"   Gusts: NA
Location:  18.2667°N, 65.6476°W
Report Text: TJNR 190253Z AUTO 05008KT 10SM FEW027 FEW034 BKN085 26/21 A3003 RMK AO2 SLP168 T02560211 51006 $
Loading
Personal Weather Stations






























Interactive Weather Map New forecast layout! Learn more

10-Day Weather Forecast

Advertisements
Track Severe Weather on mobile